sensor_id;sensor_type;location;lat;lon;timestamp;P1;durP1;ratioP1;P2;durP2;ratioP2
2604;SDS011;1312;50.298;8.520;2024-03-23T00:54:00;44.00;;;32.17;;
2604;SDS011;1312;50.298;8.520;2024-03-23T00:56:28;43.50;;;30.90;;
2604;SDS011;1312;50.298;8.520;2024-03-23T00:58:54;40.53;;;28.10;;
2604;SDS011;1312;50.298;8.520;2024-03-23T01:01:21;38.37;;;28.30;;
2604;SDS011;1312;50.298;8.520;2024-03-23T01:03:47;38.03;;;28.07;;
2604;SDS011;1312;50.298;8.520;2024-03-23T01:06:14;35.53;;;27.67;;
2604;SDS011;1312;50.298;8.520;2024-03-23T01:08:40;36.37;;;26.90;;
2604;SDS011;1312;50.298;8.520;2024-03-23T01:11:09;38.37;;;27.57;;
2604;SDS011;1312;50.298;8.520;2024-03-23T01:13:36;25.50;;;21.27;;
2604;SDS011;1312;50.298;8.520;2024-03-23T01:16:02;33.83;;;23.87;;
2604;SDS011;1312;50.298;8.520;2024-03-23T01:18:29;33.73;;;25.87;;
2604;SDS011;1312;50.298;8.520;2024-03-23T01:20:55;37.10;;;25.80;;
2604;SDS011;1312;50.298;8.520;2024-03-23T01:23:22;30.50;;;23.93;;
2604;SDS011;1312;50.298;8.520;2024-03-23T01:25:52;37.77;;;26.27;;
2604;SDS011;1312;50.298;8.520;2024-03-23T01:28:20;32.23;;;24.10;;
2604;SDS011;1312;50.298;8.520;2024-03-23T01:30:47;34.27;;;25.27;;
2604;SDS011;1312;50.298;8.520;2024-03-23T01:33:14;32.53;;;23.80;;
2604;SDS011;1312;50.298;8.520;2024-03-23T01:35:40;38.40;;;26.97;;
2604;SDS011;1312;50.298;8.520;2024-03-23T01:38:07;36.10;;;26.10;;
2604;SDS011;1312;50.298;8.520;2024-03-23T01:40:33;38.83;;;29.47;;
2604;SDS011;1312;50.298;8.520;2024-03-23T01:43:03;33.07;;;22.10;;
2604;SDS011;1312;50.298;8.520;2024-03-23T01:45:31;32.57;;;22.80;;
2604;SDS011;1312;50.298;8.520;2024-03-23T01:47:58;29.60;;;22.70;;
2604;SDS011;1312;50.298;8.520;2024-03-23T01:50:24;36.23;;;25.10;;
2604;SDS011;1312;50.298;8.520;2024-03-23T01:52:52;41.97;;;28.60;;
2604;SDS011;1312;50.298;8.520;2024-03-23T01:55:19;46.00;;;28.90;;
2604;SDS011;1312;50.298;8.520;2024-03-23T01:57:46;34.40;;;25.03;;
2604;SDS011;1312;50.298;8.520;2024-03-23T02:00:12;37.43;;;25.80;;
2604;SDS011;1312;50.298;8.520;2024-03-23T02:02:43;44.13;;;31.70;;
2604;SDS011;1312;50.298;8.520;2024-03-23T02:05:09;48.17;;;30.40;;
2604;SDS011;1312;50.298;8.520;2024-03-23T02:07:37;44.93;;;30.20;;
2604;SDS011;1312;50.298;8.520;2024-03-23T02:10:04;41.50;;;30.23;;
2604;SDS011;1312;50.298;8.520;2024-03-23T02:12:32;50.33;;;30.50;;
2604;SDS011;1312;50.298;8.520;2024-03-23T02:14:58;40.73;;;28.87;;
2604;SDS011;1312;50.298;8.520;2024-03-23T02:17:25;34.40;;;24.60;;
2604;SDS011;1312;50.298;8.520;2024-03-23T02:19:53;34.23;;;25.57;;
2604;SDS011;1312;50.298;8.520;2024-03-23T02:22:20;33.90;;;25.60;;
2604;SDS011;1312;50.298;8.520;2024-03-23T02:24:47;32.37;;;25.23;;
2604;SDS011;1312;50.298;8.520;2024-03-23T02:27:15;41.03;;;27.30;;
2604;SDS011;1312;50.298;8.520;2024-03-23T02:29:41;36.47;;;26.17;;
2604;SDS011;1312;50.298;8.520;2024-03-23T02:32:08;43.27;;;29.67;;
2604;SDS011;1312;50.298;8.520;2024-03-23T02:34:34;38.27;;;28.50;;
2604;SDS011;1312;50.298;8.520;2024-03-23T02:37:01;40.57;;;28.77;;
2604;SDS011;1312;50.298;8.520;2024-03-23T02:39:27;39.37;;;29.37;;
2604;SDS011;1312;50.298;8.520;2024-03-23T02:41:56;43.17;;;29.30;;
2604;SDS011;1312;50.298;8.520;2024-03-23T02:44:23;40.43;;;29.10;;
2604;SDS011;1312;50.298;8.520;2024-03-23T02:46:49;40.97;;;29.70;;
2604;SDS011;1312;50.298;8.520;2024-03-23T02:49:16;41.07;;;29.40;;
2604;SDS011;1312;50.298;8.520;2024-03-23T02:51:42;48.13;;;31.70;;
2604;SDS011;1312;50.298;8.520;2024-03-23T02:54:10;36.30;;;24.10;;
2604;SDS011;1312;50.298;8.520;2024-03-23T02:56:36;38.53;;;28.50;;
2604;SDS011;1312;50.298;8.520;2024-03-23T02:59:05;36.17;;;28.37;;
2604;SDS011;1312;50.298;8.520;2024-03-23T03:01:31;32.73;;;25.53;;
2604;SDS011;1312;50.298;8.520;2024-03-23T03:03:58;37.90;;;28.13;;
2604;SDS011;1312;50.298;8.520;2024-03-23T03:06:25;35.60;;;26.27;;
2604;SDS011;1312;50.298;8.520;2024-03-23T03:08:52;31.70;;;25.40;;
2604;SDS011;1312;50.298;8.520;2024-03-23T03:11:19;30.20;;;25.33;;
2604;SDS011;1312;50.298;8.520;2024-03-23T03:13:46;35.93;;;25.07;;
2604;SDS011;1312;50.298;8.520;2024-03-23T03:16:13;40.73;;;28.37;;
2604;SDS011;1312;50.298;8.520;2024-03-23T03:18:40;35.60;;;26.60;;
2604;SDS011;1312;50.298;8.520;2024-03-23T03:21:06;42.70;;;30.40;;
2604;SDS011;1312;50.298;8.520;2024-03-23T03:23:36;41.90;;;31.13;;
2604;SDS011;1312;50.298;8.520;2024-03-23T03:26:02;50.93;;;33.53;;
2604;SDS011;1312;50.298;8.520;2024-03-23T03:28:29;52.60;;;34.30;;
2604;SDS011;1312;50.298;8.520;2024-03-23T03:30:56;48.40;;;32.30;;
2604;SDS011;1312;50.298;8.520;2024-03-23T03:33:24;43.60;;;33.90;;
2604;SDS011;1312;50.298;8.520;2024-03-23T03:35:51;47.03;;;33.60;;
2604;SDS011;1312;50.298;8.520;2024-03-23T03:38:18;39.27;;;29.00;;
2604;SDS011;1312;50.298;8.520;2024-03-23T03:40:44;34.80;;;27.30;;
2604;SDS011;1312;50.298;8.520;2024-03-23T03:43:11;36.37;;;29.90;;
2604;SDS011;1312;50.298;8.520;2024-03-23T03:45:37;50.60;;;32.33;;
2604;SDS011;1312;50.298;8.520;2024-03-23T03:48:05;47.13;;;33.23;;
2604;SDS011;1312;50.298;8.520;2024-03-23T03:50:33;46.10;;;29.97;;
2604;SDS011;1312;50.298;8.520;2024-03-23T03:53:00;32.47;;;21.90;;
2604;SDS011;1312;50.298;8.520;2024-03-23T03:55:25;33.40;;;23.17;;
2604;SDS011;1312;50.298;8.520;2024-03-23T03:57:53;34.93;;;22.27;;
2604;SDS011;1312;50.298;8.520;2024-03-23T04:00:19;30.50;;;22.50;;
2604;SDS011;1312;50.298;8.520;2024-03-23T04:02:46;29.03;;;22.17;;
2604;SDS011;1312;50.298;8.520;2024-03-23T04:05:12;28.37;;;22.10;;
2604;SDS011;1312;50.298;8.520;2024-03-23T04:07:41;26.00;;;21.57;;
2604;SDS011;1312;50.298;8.520;2024-03-23T04:10:08;19.20;;;17.23;;
2604;SDS011;1312;50.298;8.520;2024-03-23T04:12:35;19.27;;;17.40;;
2604;SDS011;1312;50.298;8.520;2024-03-23T04:15:01;16.30;;;14.60;;
2604;SDS011;1312;50.298;8.520;2024-03-23T04:17:29;16.63;;;15.13;;
2604;SDS011;1312;50.298;8.520;2024-03-23T04:19:57;13.90;;;12.87;;
2604;SDS011;1312;50.298;8.520;2024-03-23T04:22:24;13.73;;;12.93;;
2604;SDS011;1312;50.298;8.520;2024-03-23T04:24:53;13.50;;;12.70;;
2604;SDS011;1312;50.298;8.520;2024-03-23T04:27:21;13.40;;;12.50;;
2604;SDS011;1312;50.298;8.520;2024-03-23T04:29:47;12.23;;;11.53;;
2604;SDS011;1312;50.298;8.520;2024-03-23T04:32:15;12.03;;;11.43;;
2604;SDS011;1312;50.298;8.520;2024-03-23T04:34:42;11.63;;;11.13;;
2604;SDS011;1312;50.298;8.520;2024-03-23T04:37:10;11.70;;;11.20;;
2604;SDS011;1312;50.298;8.520;2024-03-23T04:39:37;12.10;;;11.60;;
2604;SDS011;1312;50.298;8.520;2024-03-23T04:42:06;11.73;;;10.93;;
2604;SDS011;1312;50.298;8.520;2024-03-23T04:44:33;11.63;;;11.13;;
2604;SDS011;1312;50.298;8.520;2024-03-23T04:47:00;12.27;;;11.67;;
2604;SDS011;1312;50.298;8.520;2024-03-23T04:49:27;12.30;;;11.70;;
2604;SDS011;1312;50.298;8.520;2024-03-23T04:51:54;12.00;;;11.50;;
2604;SDS011;1312;50.298;8.520;2024-03-23T04:54:21;11.90;;;11.30;;
2604;SDS011;1312;50.298;8.520;2024-03-23T04:56:48;11.37;;;10.77;;
2604;SDS011;1312;50.298;8.520;2024-03-23T04:59:16;10.63;;;10.03;;
2604;SDS011;1312;50.298;8.520;2024-03-23T05:01:43;10.20;;;9.70;;
2604;SDS011;1312;50.298;8.520;2024-03-23T05:04:09;10.43;;;9.93;;
2604;SDS011;1312;50.298;8.520;2024-03-23T05:06:36;10.40;;;9.80;;
2604;SDS011;1312;50.298;8.520;2024-03-23T05:09:02;10.33;;;9.83;;
2604;SDS011;1312;50.298;8.520;2024-03-23T05:11:31;11.17;;;10.47;;
2604;SDS011;1312;50.298;8.520;2024-03-23T05:13:57;11.00;;;10.50;;
2604;SDS011;1312;50.298;8.520;2024-03-23T05:16:26;11.00;;;10.40;;
2604;SDS011;1312;50.298;8.520;2024-03-23T05:18:52;11.37;;;10.77;;
2604;SDS011;1312;50.298;8.520;2024-03-23T05:21:19;11.60;;;10.90;;
2604;SDS011;1312;50.298;8.520;2024-03-23T05:23:45;14.70;;;13.90;;
2604;SDS011;1312;50.298;8.520;2024-03-23T05:26:12;14.20;;;13.40;;
2604;SDS011;1312;50.298;8.520;2024-03-23T05:28:38;14.43;;;13.63;;
2604;SDS011;1312;50.298;8.520;2024-03-23T05:31:05;14.23;;;13.37;;
2604;SDS011;1312;50.298;8.520;2024-03-23T05:33:33;13.60;;;12.90;;
2604;SDS011;1312;50.298;8.520;2024-03-23T05:36:00;11.97;;;11.37;;
2604;SDS011;1312;50.298;8.520;2024-03-23T05:38:27;9.90;;;9.30;;
2604;SDS011;1312;50.298;8.520;2024-03-23T05:40:54;8.53;;;8.07;;
2604;SDS011;1312;50.298;8.520;2024-03-23T05:43:20;7.17;;;6.77;;
2604;SDS011;1312;50.298;8.520;2024-03-23T05:45:52;6.40;;;6.03;;
2604;SDS011;1312;50.298;8.520;2024-03-23T05:48:19;6.50;;;6.10;;
2604;SDS011;1312;50.298;8.520;2024-03-23T05:50:47;6.87;;;6.30;;
2604;SDS011;1312;50.298;8.520;2024-03-23T05:53:14;6.47;;;6.17;;
2604;SDS011;1312;50.298;8.520;2024-03-23T05:55:41;6.60;;;6.20;;
2604;SDS011;1312;50.298;8.520;2024-03-23T05:58:07;5.90;;;5.70;;
2604;SDS011;1312;50.298;8.520;2024-03-23T06:00:34;6.33;;;6.13;;
2604;SDS011;1312;50.298;8.520;2024-03-23T06:03:01;6.40;;;6.10;;
2604;SDS011;1312;50.298;8.520;2024-03-23T06:05:28;6.53;;;6.23;;
2604;SDS011;1312;50.298;8.520;2024-03-23T06:07:55;6.90;;;6.60;;
2604;SDS011;1312;50.298;8.520;2024-03-23T06:10:22;6.17;;;5.87;;
2604;SDS011;1312;50.298;8.520;2024-03-23T06:12:48;5.60;;;5.40;;
2604;SDS011;1312;50.298;8.520;2024-03-23T06:15:17;5.37;;;5.17;;
2604;SDS011;1312;50.298;8.520;2024-03-23T06:17:43;4.90;;;4.70;;
2604;SDS011;1312;50.298;8.520;2024-03-23T06:20:10;5.10;;;4.90;;
2604;SDS011;1312;50.298;8.520;2024-03-23T06:22:36;5.60;;;5.40;;
2604;SDS011;1312;50.298;8.520;2024-03-23T06:25:05;5.40;;;5.20;;
2604;SDS011;1312;50.298;8.520;2024-03-23T06:27:31;5.30;;;5.10;;
2604;SDS011;1312;50.298;8.520;2024-03-23T06:29:58;6.60;;;6.30;;
2604;SDS011;1312;50.298;8.520;2024-03-23T06:32:24;5.80;;;5.60;;
2604;SDS011;1312;50.298;8.520;2024-03-23T06:34:51;5.73;;;5.53;;
2604;SDS011;1312;50.298;8.520;2024-03-23T06:37:17;5.60;;;5.30;;
2604;SDS011;1312;50.298;8.520;2024-03-23T06:39:45;5.40;;;5.20;;
2604;SDS011;1312;50.298;8.520;2024-03-23T06:42:13;4.80;;;4.60;;
2604;SDS011;1312;50.298;8.520;2024-03-23T06:44:40;5.03;;;4.73;;
2604;SDS011;1312;50.298;8.520;2024-03-23T06:47:06;5.33;;;5.10;;
2604;SDS011;1312;50.298;8.520;2024-03-23T06:49:33;4.70;;;4.40;;
2604;SDS011;1312;50.298;8.520;2024-03-23T06:51:59;6.13;;;5.63;;
2604;SDS011;1312;50.298;8.520;2024-03-23T06:54:26;5.67;;;5.37;;
2604;SDS011;1312;50.298;8.520;2024-03-23T06:56:52;6.13;;;5.53;;
2604;SDS011;1312;50.298;8.520;2024-03-23T06:59:20;5.60;;;5.10;;
2604;SDS011;1312;50.298;8.520;2024-03-23T07:01:46;5.47;;;4.97;;
2604;SDS011;1312;50.298;8.520;2024-03-23T07:04:13;6.87;;;6.37;;
2604;SDS011;1312;50.298;8.520;2024-03-23T07:06:42;5.30;;;5.00;;
2604;SDS011;1312;50.298;8.520;2024-03-23T07:09:09;5.33;;;4.93;;
2604;SDS011;1312;50.298;8.520;2024-03-23T07:11:35;5.97;;;5.50;;
2604;SDS011;1312;50.298;8.520;2024-03-23T07:14:02;5.90;;;5.40;;
2604;SDS011;1312;50.298;8.520;2024-03-23T07:16:30;7.70;;;6.00;;
2604;SDS011;1312;50.298;8.520;2024-03-23T07:18:57;6.53;;;5.67;;
2604;SDS011;1312;50.298;8.520;2024-03-23T07:21:23;5.97;;;5.47;;
2604;SDS011;1312;50.298;8.520;2024-03-23T07:23:50;8.63;;;6.20;;
2604;SDS011;1312;50.298;8.520;2024-03-23T07:26:16;7.47;;;7.07;;
2604;SDS011;1312;50.298;8.520;2024-03-23T07:28:44;10.07;;;8.57;;
2604;SDS011;1312;50.298;8.520;2024-03-23T07:31:12;10.37;;;9.50;;
2604;SDS011;1312;50.298;8.520;2024-03-23T07:33:45;8.20;;;7.37;;
2604;SDS011;1312;50.298;8.520;2024-03-23T07:36:13;11.10;;;8.80;;
2604;SDS011;1312;50.298;8.520;2024-03-23T07:38:40;10.13;;;8.77;;
2604;SDS011;1312;50.298;8.520;2024-03-23T07:41:07;9.27;;;8.57;;
2604;SDS011;1312;50.298;8.520;2024-03-23T07:43:35;9.70;;;8.90;;
2604;SDS011;1312;50.298;8.520;2024-03-23T07:46:02;9.53;;;8.63;;
2604;SDS011;1312;50.298;8.520;2024-03-23T07:48:29;9.73;;;8.73;;
2604;SDS011;1312;50.298;8.520;2024-03-23T07:51:01;11.10;;;10.10;;
2604;SDS011;1312;50.298;8.520;2024-03-23T07:53:30;13.17;;;9.50;;
2604;SDS011;1312;50.298;8.520;2024-03-23T07:55:57;11.80;;;11.00;;
2604;SDS011;1312;50.298;8.520;2024-03-23T07:58:24;11.80;;;10.77;;
2604;SDS011;1312;50.298;8.520;2024-03-23T08:00:51;10.27;;;9.47;;
2604;SDS011;1312;50.298;8.520;2024-03-23T08:03:19;10.80;;;9.80;;
2604;SDS011;1312;50.298;8.520;2024-03-23T08:05:45;10.20;;;9.20;;
2604;SDS011;1312;50.298;8.520;2024-03-23T08:08:14;9.60;;;8.60;;
2604;SDS011;1312;50.298;8.520;2024-03-23T08:10:47;10.00;;;9.10;;
2604;SDS011;1312;50.298;8.520;2024-03-23T08:13:14;12.90;;;11.67;;
2604;SDS011;1312;50.298;8.520;2024-03-23T08:15:41;11.10;;;10.10;;
2604;SDS011;1312;50.298;8.520;2024-03-23T08:18:08;11.23;;;10.03;;
2604;SDS011;1312;50.298;8.520;2024-03-23T08:20:35;10.13;;;9.00;;
2604;SDS011;1312;50.298;8.520;2024-03-23T08:23:01;11.90;;;10.50;;
2604;SDS011;1312;50.298;8.520;2024-03-23T08:25:32;11.03;;;9.90;;
2604;SDS011;1312;50.298;8.520;2024-03-23T08:27:58;10.50;;;9.40;;
2604;SDS011;1312;50.298;8.520;2024-03-23T08:30:25;11.83;;;9.57;;
2604;SDS011;1312;50.298;8.520;2024-03-23T08:32:51;12.93;;;9.23;;
2604;SDS011;1312;50.298;8.520;2024-03-23T08:35:18;9.57;;;8.77;;
2604;SDS011;1312;50.298;8.520;2024-03-23T08:37:45;9.33;;;8.40;;
2604;SDS011;1312;50.298;8.520;2024-03-23T08:40:12;10.07;;;9.10;;
2604;SDS011;1312;50.298;8.520;2024-03-23T08:42:39;11.30;;;8.33;;
2604;SDS011;1312;50.298;8.520;2024-03-23T08:45:06;10.43;;;9.43;;
2604;SDS011;1312;50.298;8.520;2024-03-23T08:47:34;16.67;;;15.37;;
2604;SDS011;1312;50.298;8.520;2024-03-23T08:50:01;18.97;;;17.17;;
2604;SDS011;1312;50.298;8.520;2024-03-23T08:52:27;8.63;;;7.40;;
2604;SDS011;1312;50.298;8.520;2024-03-23T08:54:55;16.00;;;14.67;;
2604;SDS011;1312;50.298;8.520;2024-03-23T08:57:21;22.67;;;20.90;;
2604;SDS011;1312;50.298;8.520;2024-03-23T08:59:49;10.67;;;7.87;;
2604;SDS011;1312;50.298;8.520;2024-03-23T09:02:16;9.43;;;8.20;;
2604;SDS011;1312;50.298;8.520;2024-03-23T09:04:43;8.83;;;7.90;;
2604;SDS011;1312;50.298;8.520;2024-03-23T09:07:10;8.37;;;7.43;;
2604;SDS011;1312;50.298;8.520;2024-03-23T09:09:37;8.60;;;7.00;;
2604;SDS011;1312;50.298;8.520;2024-03-23T09:12:05;11.10;;;8.07;;
2604;SDS011;1312;50.298;8.520;2024-03-23T09:14:32;11.20;;;7.70;;
2604;SDS011;1312;50.298;8.520;2024-03-23T09:17:00;7.60;;;6.80;;
2604;SDS011;1312;50.298;8.520;2024-03-23T09:19:27;8.63;;;7.10;;
2604;SDS011;1312;50.298;8.520;2024-03-23T09:21:54;6.33;;;5.83;;
2604;SDS011;1312;50.298;8.520;2024-03-23T09:24:20;7.63;;;6.90;;
2604;SDS011;1312;50.298;8.520;2024-03-23T09:26:47;9.43;;;6.73;;
2604;SDS011;1312;50.298;8.520;2024-03-23T09:29:14;7.17;;;6.40;;
2604;SDS011;1312;50.298;8.520;2024-03-23T09:31:41;8.50;;;6.50;;
2604;SDS011;1312;50.298;8.520;2024-03-23T09:34:08;11.07;;;6.87;;
2604;SDS011;1312;50.298;8.520;2024-03-23T09:36:35;7.67;;;6.87;;
2604;SDS011;1312;50.298;8.520;2024-03-23T09:39:01;7.43;;;6.60;;
2604;SDS011;1312;50.298;8.520;2024-03-23T09:41:29;9.00;;;7.73;;
2604;SDS011;1312;50.298;8.520;2024-03-23T09:43:55;10.90;;;9.73;;
2604;SDS011;1312;50.298;8.520;2024-03-23T09:46:22;10.47;;;9.50;;
2604;SDS011;1312;50.298;8.520;2024-03-23T09:48:48;10.60;;;9.60;;
2604;SDS011;1312;50.298;8.520;2024-03-23T09:51:17;9.47;;;8.70;;
2604;SDS011;1312;50.298;8.520;2024-03-23T09:53:43;9.60;;;8.90;;
2604;SDS011;1312;50.298;8.520;2024-03-23T09:56:10;9.23;;;8.63;;
2604;SDS011;1312;50.298;8.520;2024-03-23T09:58:35;6.43;;;5.87;;
2604;SDS011;1312;50.298;8.520;2024-03-23T10:01:03;12.97;;;12.07;;
2604;SDS011;1312;50.298;8.520;2024-03-23T10:03:30;14.00;;;12.83;;
2604;SDS011;1312;50.298;8.520;2024-03-23T10:06:00;13.97;;;13.07;;
2604;SDS011;1312;50.298;8.520;2024-03-23T10:08:28;13.67;;;12.97;;
2604;SDS011;1312;50.298;8.520;2024-03-23T10:10:56;13.13;;;12.30;;
2604;SDS011;1312;50.298;8.520;2024-03-23T10:13:26;12.23;;;11.50;;
2604;SDS011;1312;50.298;8.520;2024-03-23T10:15:55;11.53;;;10.60;;
2604;SDS011;1312;50.298;8.520;2024-03-23T10:18:22;11.53;;;10.73;;
2604;SDS011;1312;50.298;8.520;2024-03-23T10:20:50;11.13;;;10.40;;
2604;SDS011;1312;50.298;8.520;2024-03-23T10:23:18;11.57;;;10.70;;
2604;SDS011;1312;50.298;8.520;2024-03-23T10:25:46;10.07;;;9.37;;
2604;SDS011;1312;50.298;8.520;2024-03-23T10:28:12;9.43;;;8.90;;
2604;SDS011;1312;50.298;8.520;2024-03-23T10:30:39;10.20;;;9.60;;
2604;SDS011;1312;50.298;8.520;2024-03-23T10:33:08;10.17;;;9.50;;
2604;SDS011;1312;50.298;8.520;2024-03-23T10:35:36;10.97;;;10.30;;
2604;SDS011;1312;50.298;8.520;2024-03-23T10:38:04;10.40;;;9.80;;
2604;SDS011;1312;50.298;8.520;2024-03-23T10:40:33;10.80;;;10.20;;
2604;SDS011;1312;50.298;8.520;2024-03-23T10:43:02;10.60;;;10.00;;
2604;SDS011;1312;50.298;8.520;2024-03-23T10:45:30;9.33;;;8.53;;
2604;SDS011;1312;50.298;8.520;2024-03-23T10:47:56;5.07;;;4.67;;
2604;SDS011;1312;50.298;8.520;2024-03-23T10:50:23;4.80;;;4.50;;
2604;SDS011;1312;50.298;8.520;2024-03-23T10:52:49;6.00;;;5.43;;
2604;SDS011;1312;50.298;8.520;2024-03-23T10:55:21;5.03;;;4.60;;
2604;SDS011;1312;50.298;8.520;2024-03-23T10:57:49;5.40;;;4.77;;
2604;SDS011;1312;50.298;8.520;2024-03-23T11:00:20;8.13;;;5.80;;
2604;SDS011;1312;50.298;8.520;2024-03-23T11:02:48;5.57;;;5.17;;
2604;SDS011;1312;50.298;8.520;2024-03-23T11:05:28;7.13;;;6.63;;
2604;SDS011;1312;50.298;8.520;2024-03-23T11:07:55;6.27;;;5.00;;
2604;SDS011;1312;50.298;8.520;2024-03-23T11:10:25;5.63;;;5.23;;
2604;SDS011;1312;50.298;8.520;2024-03-23T11:12:52;8.60;;;7.77;;
2604;SDS011;1312;50.298;8.520;2024-03-23T11:15:21;7.47;;;6.87;;
2604;SDS011;1312;50.298;8.520;2024-03-23T11:18:01;8.30;;;7.70;;
2604;SDS011;1312;50.298;8.520;2024-03-23T11:20:33;10.23;;;9.03;;
2604;SDS011;1312;50.298;8.520;2024-03-23T11:22:59;8.43;;;7.93;;
2604;SDS011;1312;50.298;8.520;2024-03-23T11:25:27;6.57;;;6.17;;
2604;SDS011;1312;50.298;8.520;2024-03-23T11:27:54;6.07;;;5.67;;
2604;SDS011;1312;50.298;8.520;2024-03-23T11:30:24;5.83;;;5.43;;
2604;SDS011;1312;50.298;8.520;2024-03-23T11:32:52;6.10;;;5.60;;
2604;SDS011;1312;50.298;8.520;2024-03-23T11:35:27;6.43;;;5.43;;
2604;SDS011;1312;50.298;8.520;2024-03-23T11:38:03;5.97;;;5.33;;
2604;SDS011;1312;50.298;8.520;2024-03-23T11:40:35;7.43;;;6.83;;
2604;SDS011;1312;50.298;8.520;2024-03-23T11:43:02;5.70;;;5.40;;
2604;SDS011;1312;50.298;8.520;2024-03-23T11:45:35;8.93;;;8.43;;
2604;SDS011;1312;50.298;8.520;2024-03-23T11:48:04;7.10;;;5.80;;
2604;SDS011;1312;50.298;8.520;2024-03-23T11:50:32;9.53;;;8.73;;
2604;SDS011;1312;50.298;8.520;2024-03-23T11:53:06;8.70;;;8.13;;
2604;SDS011;1312;50.298;8.520;2024-03-23T11:55:45;8.53;;;7.80;;
2604;SDS011;1312;50.298;8.520;2024-03-23T11:58:12;8.80;;;8.20;;
2604;SDS011;1312;50.298;8.520;2024-03-23T12:00:41;6.27;;;5.87;;
2604;SDS011;1312;50.298;8.520;2024-03-23T12:03:07;6.33;;;5.60;;
2604;SDS011;1312;50.298;8.520;2024-03-23T12:05:35;5.53;;;4.70;;
2604;SDS011;1312;50.298;8.520;2024-03-23T12:08:15;6.20;;;5.47;;
2604;SDS011;1312;50.298;8.520;2024-03-23T12:10:47;6.33;;;4.70;;
2604;SDS011;1312;50.298;8.520;2024-03-23T12:13:15;5.83;;;5.30;;
2604;SDS011;1312;50.298;8.520;2024-03-23T12:15:45;5.10;;;4.70;;
2604;SDS011;1312;50.298;8.520;2024-03-23T12:18:11;5.70;;;4.77;;
2604;SDS011;1312;50.298;8.520;2024-03-23T12:20:39;4.97;;;4.60;;
2604;SDS011;1312;50.298;8.520;2024-03-23T12:23:06;5.70;;;5.20;;
2604;SDS011;1312;50.298;8.520;2024-03-23T12:25:35;6.03;;;4.87;;
2604;SDS011;1312;50.298;8.520;2024-03-23T12:28:01;6.80;;;5.00;;
2604;SDS011;1312;50.298;8.520;2024-03-23T12:30:31;4.93;;;4.40;;
2604;SDS011;1312;50.298;8.520;2024-03-23T12:32:59;4.90;;;4.50;;
2604;SDS011;1312;50.298;8.520;2024-03-23T12:35:26;6.70;;;5.00;;
2604;SDS011;1312;50.298;8.520;2024-03-23T12:37:52;5.80;;;5.40;;
2604;SDS011;1312;50.298;8.520;2024-03-23T12:40:19;10.00;;;9.40;;
2604;SDS011;1312;50.298;8.520;2024-03-23T12:42:45;14.07;;;13.37;;
2604;SDS011;1312;50.298;8.520;2024-03-23T12:45:12;17.93;;;17.17;;
2604;SDS011;1312;50.298;8.520;2024-03-23T12:47:38;20.33;;;18.93;;
2604;SDS011;1312;50.298;8.520;2024-03-23T12:50:07;17.20;;;15.87;;
2604;SDS011;1312;50.298;8.520;2024-03-23T12:52:35;17.23;;;15.90;;
2604;SDS011;1312;50.298;8.520;2024-03-23T12:55:02;14.33;;;13.50;;
2604;SDS011;1312;50.298;8.520;2024-03-23T12:57:29;14.70;;;13.90;;
2604;SDS011;1312;50.298;8.520;2024-03-23T12:59:56;13.30;;;12.50;;
2604;SDS011;1312;50.298;8.520;2024-03-23T13:02:22;11.87;;;11.17;;
2604;SDS011;1312;50.298;8.520;2024-03-23T13:04:49;13.73;;;12.60;;
2604;SDS011;1312;50.298;8.520;2024-03-23T13:07:18;13.60;;;12.60;;
2604;SDS011;1312;50.298;8.520;2024-03-23T13:09:46;11.23;;;10.30;;
2604;SDS011;1312;50.298;8.520;2024-03-23T13:12:15;11.00;;;10.17;;
2604;SDS011;1312;50.298;8.520;2024-03-23T13:14:42;27.53;;;26.13;;
2604;SDS011;1312;50.298;8.520;2024-03-23T13:17:08;27.80;;;26.50;;
2604;SDS011;1312;50.298;8.520;2024-03-23T13:19:35;25.23;;;24.20;;
2604;SDS011;1312;50.298;8.520;2024-03-23T13:22:01;16.10;;;15.40;;
2604;SDS011;1312;50.298;8.520;2024-03-23T13:24:30;8.27;;;7.87;;
2604;SDS011;1312;50.298;8.520;2024-03-23T13:26:56;8.93;;;8.33;;
2604;SDS011;1312;50.298;8.520;2024-03-23T13:29:24;6.90;;;6.50;;
2604;SDS011;1312;50.298;8.520;2024-03-23T13:31:51;6.73;;;6.43;;
2604;SDS011;1312;50.298;8.520;2024-03-23T13:34:19;5.90;;;5.40;;
2604;SDS011;1312;50.298;8.520;2024-03-23T13:36:45;4.80;;;4.50;;
2604;SDS011;1312;50.298;8.520;2024-03-23T13:39:13;4.50;;;4.20;;
2604;SDS011;1312;50.298;8.520;2024-03-23T13:41:44;4.70;;;4.07;;
2604;SDS011;1312;50.298;8.520;2024-03-23T13:44:12;3.70;;;3.40;;
2604;SDS011;1312;50.298;8.520;2024-03-23T13:46:39;4.00;;;3.70;;
2604;SDS011;1312;50.298;8.520;2024-03-23T13:49:08;5.70;;;3.90;;
2604;SDS011;1312;50.298;8.520;2024-03-23T13:51:50;4.00;;;3.60;;
2604;SDS011;1312;50.298;8.520;2024-03-23T13:54:18;4.43;;;4.03;;
2604;SDS011;1312;50.298;8.520;2024-03-23T13:56:45;6.73;;;4.27;;
2604;SDS011;1312;50.298;8.520;2024-03-23T13:59:14;4.57;;;4.17;;
2604;SDS011;1312;50.298;8.520;2024-03-23T14:01:40;4.40;;;4.10;;
2604;SDS011;1312;50.298;8.520;2024-03-23T14:04:07;4.63;;;4.33;;
2604;SDS011;1312;50.298;8.520;2024-03-23T14:06:33;5.13;;;4.83;;
2604;SDS011;1312;50.298;8.520;2024-03-23T14:09:00;5.03;;;4.73;;
2604;SDS011;1312;50.298;8.520;2024-03-23T14:11:29;4.20;;;4.00;;
2604;SDS011;1312;50.298;8.520;2024-03-23T14:13:57;3.90;;;3.60;;
2604;SDS011;1312;50.298;8.520;2024-03-23T14:16:23;3.80;;;3.50;;
2604;SDS011;1312;50.298;8.520;2024-03-23T14:18:50;4.27;;;3.93;;
2604;SDS011;1312;50.298;8.520;2024-03-23T14:21:17;3.43;;;3.23;;
2604;SDS011;1312;50.298;8.520;2024-03-23T14:23:44;3.67;;;3.40;;
2604;SDS011;1312;50.298;8.520;2024-03-23T14:26:10;3.83;;;3.53;;
2604;SDS011;1312;50.298;8.520;2024-03-23T14:28:37;4.20;;;3.90;;
2604;SDS011;1312;50.298;8.520;2024-03-23T14:31:04;3.80;;;3.60;;
2604;SDS011;1312;50.298;8.520;2024-03-23T14:33:35;4.10;;;3.90;;
2604;SDS011;1312;50.298;8.520;2024-03-23T14:36:03;4.70;;;4.50;;
2604;SDS011;1312;50.298;8.520;2024-03-23T14:38:30;3.80;;;3.50;;
2604;SDS011;1312;50.298;8.520;2024-03-23T14:40:57;4.77;;;4.57;;
2604;SDS011;1312;50.298;8.520;2024-03-23T14:43:25;4.20;;;3.90;;
2604;SDS011;1312;50.298;8.520;2024-03-23T14:46:08;8.07;;;7.73;;
2604;SDS011;1312;50.298;8.520;2024-03-23T14:48:36;3.43;;;3.23;;
2604;SDS011;1312;50.298;8.520;2024-03-23T14:51:03;4.10;;;3.90;;
2604;SDS011;1312;50.298;8.520;2024-03-23T14:53:31;4.10;;;3.50;;
2604;SDS011;1312;50.298;8.520;2024-03-23T14:55:57;4.77;;;4.57;;
2604;SDS011;1312;50.298;8.520;2024-03-23T14:58:25;5.00;;;4.70;;
2604;SDS011;1312;50.298;8.520;2024-03-23T15:00:51;5.03;;;4.73;;
2604;SDS011;1312;50.298;8.520;2024-03-23T15:03:20;4.40;;;4.20;;
2604;SDS011;1312;50.298;8.520;2024-03-23T15:05:53;5.13;;;4.67;;
2604;SDS011;1312;50.298;8.520;2024-03-23T15:08:20;4.90;;;4.70;;
2604;SDS011;1312;50.298;8.520;2024-03-23T15:10:46;4.50;;;4.20;;
2604;SDS011;1312;50.298;8.520;2024-03-23T15:13:13;4.60;;;4.40;;
2604;SDS011;1312;50.298;8.520;2024-03-23T15:15:40;4.50;;;4.20;;
2604;SDS011;1312;50.298;8.520;2024-03-23T15:18:09;4.50;;;4.20;;
2604;SDS011;1312;50.298;8.520;2024-03-23T15:20:37;4.77;;;4.47;;
2604;SDS011;1312;50.298;8.520;2024-03-23T15:23:04;4.37;;;3.97;;
2604;SDS011;1312;50.298;8.520;2024-03-23T15:25:30;4.10;;;3.80;;
2604;SDS011;1312;50.298;8.520;2024-03-23T15:27:57;4.30;;;4.10;;
2604;SDS011;1312;50.298;8.520;2024-03-23T15:30:24;5.97;;;5.20;;
2604;SDS011;1312;50.298;8.520;2024-03-23T15:32:52;5.70;;;5.30;;
2604;SDS011;1312;50.298;8.520;2024-03-23T15:35:18;8.53;;;7.73;;
2604;SDS011;1312;50.298;8.520;2024-03-23T15:37:49;9.70;;;9.27;;
2604;SDS011;1312;50.298;8.520;2024-03-23T15:40:15;12.00;;;11.50;;
2604;SDS011;1312;50.298;8.520;2024-03-23T15:42:43;9.50;;;9.00;;
2604;SDS011;1312;50.298;8.520;2024-03-23T15:45:09;6.97;;;6.47;;
2604;SDS011;1312;50.298;8.520;2024-03-23T15:47:36;6.73;;;6.40;;
2604;SDS011;1312;50.298;8.520;2024-03-23T15:50:03;6.77;;;6.27;;
2604;SDS011;1312;50.298;8.520;2024-03-23T15:52:34;6.70;;;6.20;;
2604;SDS011;1312;50.298;8.520;2024-03-23T15:55:02;6.50;;;6.00;;
2604;SDS011;1312;50.298;8.520;2024-03-23T15:57:32;6.00;;;5.60;;